Terminal Aerodrome Forecast
Issued by NWS Cleveland, OH

Home | Current Version | Previous Version | Graphics & Text | Print | Product List | Glossary On
Versions: 1 2 3 4 5 6 7 8 9 10 11 12 13 14 15 16 17 18 19 20 21 22
000
FTUS41 KCLE 190300 AAB
TAFCAK
TAF AMD
KCAK 190304Z 1903/1924 33008KT 6SM -SHRA OVC007
      TEMPO 1903/1906 5SM -SHRA SCT007 OVC012
     FM190600 32006KT P6SM BKN012 OVC030
     FM191600 31006KT P6SM BKN035=

USA.gov is the U.S. government's official web portal to all federal, state and local government web resources and services.